Time;durP1;ratioP1;P1;durP2;ratioP2;P2;SDS_P1;SDS_P2;PMS_P1;PMS_P2;Temp;Humidity;BMP_temperature;BMP_pressure;BME280_temperature;BME280_humidity;BME280_pressure;Samples;Min_cycle;Max_cycle;Signal;HPM_P1;HPM_P2
2021/11/19 00:01:46;;;;;;;6.32;3.53;;;;;;;;;;5040539;28;20055;-76
2021/11/19 00:04:13;;;;;;;6.47;3.45;;;;;;;;;;5029890;28;20178;-76
2021/11/19 00:06:39;;;;;;;6.07;3.38;;;;;;;;;;5031940;28;20033;-76
2021/11/19 00:09:06;;;;;;;6.45;3.10;;;;;;;;;;5029752;28;20033;-76
2021/11/19 00:11:35;;;;;;;6.03;3.28;;;;;;;;;;5029158;28;20443;-76
2021/11/19 00:14:01;;;;;;;7.13;3.30;;;;;;;;;;5038090;28;20067;-76
2021/11/19 00:16:27;;;;;;;6.47;3.40;;;;;;;;;;5037039;28;20035;-76
2021/11/19 00:18:57;;;;;;;6.35;3.50;;;;;;;;;;5046813;28;20053;-75
2021/11/19 00:21:25;;;;;;;6.07;2.95;;;;;;;;;;5045551;28;20025;-75
2021/11/19 00:23:51;;;;;;;6.10;3.08;;;;;;;;;;5029673;28;20049;-76
2021/11/19 00:26:18;;;;;;;6.32;3.60;;;;;;;;;;5035636;28;20487;-76
2021/11/19 00:28:44;;;;;;;7.95;4.00;;;;;;;;;;5052929;28;20044;-76
2021/11/19 00:31:11;;;;;;;6.10;3.65;;;;;;;;;;5048190;28;20049;-76
2021/11/19 00:33:37;;;;;;;6.57;3.50;;;;;;;;;;5033554;28;20042;-76
2021/11/19 00:36:03;;;;;;;7.43;4.10;;;;;;;;;;5041038;28;20049;-76
2021/11/19 00:38:29;;;;;;;8.57;3.97;;;;;;;;;;5033317;28;20069;-76
2021/11/19 00:40:58;;;;;;;7.40;4.18;;;;;;;;;;5042877;28;20108;-76
2021/11/19 00:43:24;;;;;;;7.25;4.03;;;;;;;;;;5038098;28;20083;-76
2021/11/19 00:45:51;;;;;;;7.65;4.53;;;;;;;;;;5043651;28;20673;-76
2021/11/19 00:48:18;;;;;;;7.15;4.03;;;;;;;;;;5032336;28;20132;-76
2021/11/19 00:50:47;;;;;;;6.70;3.88;;;;;;;;;;5052899;28;20024;-76
2021/11/19 00:53:13;;;;;;;8.70;2.78;;;;;;;;;;5037224;28;20041;-76
2021/11/19 00:55:39;;;;;;;5.50;3.05;;;;;;;;;;5032336;28;20034;-76
2021/11/19 00:58:06;;;;;;;6.82;3.50;;;;;;;;;;5031802;28;20046;-77
2021/11/19 01:00:34;;;;;;;6.82;2.55;;;;;;;;;;5032940;28;20030;-76
2021/11/19 01:03:00;;;;;;;7.20;3.00;;;;;;;;;;5037014;28;20566;-75
2021/11/19 01:05:26;;;;;;;5.95;3.08;;;;;;;;;;5039442;28;20031;-76
2021/11/19 01:07:52;;;;;;;6.05;3.05;;;;;;;;;;5044779;28;20032;-76
2021/11/19 01:10:21;;;;;;;5.65;3.25;;;;;;;;;;5032407;28;20052;-76
2021/11/19 01:12:47;;;;;;;6.25;3.28;;;;;;;;;;5040850;28;20062;-76
2021/11/19 01:15:16;;;;;;;5.40;3.25;;;;;;;;;;5044316;28;20378;-76
2021/11/19 01:17:50;;;;;;;5.55;3.10;;;;;;;;;;5051352;28;20086;-76
2021/11/19 01:20:33;;;;;;;8.27;3.95;;;;;;;;;;5012347;28;20073;-76
2021/11/19 01:23:00;;;;;;;5.82;3.75;;;;;;;;;;5029455;28;20045;-76
2021/11/19 01:25:28;;;;;;;7.18;3.92;;;;;;;;;;5028656;28;20471;-76
2021/11/19 01:27:54;;;;;;;6.50;3.90;;;;;;;;;;5019237;28;20091;-76
2021/11/19 01:30:23;;;;;;;5.20;2.92;;;;;;;;;;5032462;28;20026;-76
2021/11/19 01:32:49;;;;;;;5.70;3.30;;;;;;;;;;5012413;28;20026;-76
2021/11/19 01:35:16;;;;;;;6.97;4.03;;;;;;;;;;5012448;28;20117;-76
2021/11/19 01:37:43;;;;;;;8.27;4.38;;;;;;;;;;5031372;28;20414;-76
2021/11/19 01:40:10;;;;;;;6.80;3.95;;;;;;;;;;5031276;28;20120;-76
2021/11/19 01:42:39;;;;;;;7.30;4.18;;;;;;;;;;5031624;28;20032;-76
2021/11/19 01:45:08;;;;;;;6.70;4.05;;;;;;;;;;5031890;28;20617;-76
2021/11/19 01:47:35;;;;;;;5.72;3.60;;;;;;;;;;5031630;28;20104;-76
2021/11/19 01:50:02;;;;;;;8.27;3.70;;;;;;;;;;5032275;28;20034;-76
2021/11/19 01:52:31;;;;;;;5.05;3.22;;;;;;;;;;5031407;28;20056;-76
2021/11/19 01:55:00;;;;;;;5.32;2.88;;;;;;;;;;5032215;28;20052;-76
2021/11/19 01:57:32;;;;;;;5.28;3.40;;;;;;;;;;5031438;28;20112;-76
2021/11/19 02:00:13;;;;;;;4.90;3.13;;;;;;;;;;5032354;28;20041;-77
2021/11/19 02:02:41;;;;;;;6.70;2.65;;;;;;;;;;5030716;28;20029;-76
2021/11/19 02:05:14;;;;;;;5.80;3.38;;;;;;;;;;5031171;28;20025;-76
2021/11/19 02:07:45;;;;;;;5.93;3.50;;;;;;;;;;5030532;28;20497;-76
2021/11/19 02:10:25;;;;;;;5.82;3.08;;;;;;;;;;5011870;28;20029;-76
2021/11/19 02:12:54;;;;;;;5.53;3.28;;;;;;;;;;5020126;28;20037;-76
2021/11/19 02:15:23;;;;;;;5.57;3.25;;;;;;;;;;5036007;28;20128;-76
2021/11/19 02:17:51;;;;;;;7.72;3.10;;;;;;;;;;5038658;28;20029;-76
2021/11/19 02:20:21;;;;;;;6.00;3.40;;;;;;;;;;5031070;28;20376;-76
2021/11/19 02:22:51;;;;;;;5.93;2.97;;;;;;;;;;5040667;28;20474;-76
2021/11/19 02:25:19;;;;;;;6.18;3.45;;;;;;;;;;5050970;28;20044;-76
2021/11/19 02:27:49;;;;;;;5.63;3.35;;;;;;;;;;5041956;28;20030;-76
2021/11/19 02:30:20;;;;;;;5.68;2.65;;;;;;;;;;5031249;28;20033;-76
2021/11/19 02:32:51;;;;;;;5.50;3.13;;;;;;;;;;5030852;28;20091;-76
2021/11/19 02:35:23;;;;;;;7.85;3.45;;;;;;;;;;5031087;28;20044;-76
2021/11/19 02:37:52;;;;;;;4.55;2.67;;;;;;;;;;5030608;28;20037;-76
2021/11/19 02:40:20;;;;;;;5.43;3.00;;;;;;;;;;5035414;28;20390;-76
2021/11/19 02:42:51;;;;;;;4.63;2.30;;;;;;;;;;5033748;28;20040;-77
2021/11/19 02:45:26;;;;;;;4.63;2.60;;;;;;;;;;5037900;28;20048;-76
2021/11/19 02:47:52;;;;;;;4.85;2.28;;;;;;;;;;5030196;28;20031;-76
2021/11/19 02:50:19;;;;;;;4.07;2.03;;;;;;;;;;5030106;28;20028;-76
2021/11/19 02:52:46;;;;;;;3.65;2.10;;;;;;;;;;5036601;28;20131;-76
2021/11/19 02:55:16;;;;;;;5.07;2.45;;;;;;;;;;5050428;28;20623;-76
2021/11/19 02:57:42;;;;;;;4.28;2.15;;;;;;;;;;5045110;28;20029;-76
2021/11/19 03:00:13;;;;;;;6.63;2.72;;;;;;;;;;5030649;28;20033;-76
2021/11/19 03:02:40;;;;;;;4.87;2.50;;;;;;;;;;5029751;28;20099;-75
2021/11/19 03:05:09;;;;;;;3.35;1.67;;;;;;;;;;5030297;28;20056;-76
2021/11/19 03:07:35;;;;;;;3.40;1.45;;;;;;;;;;5029612;28;20029;-76
2021/11/19 03:10:04;;;;;;;3.50;1.52;;;;;;;;;;5030730;28;20123;-76
2021/11/19 03:12:32;;;;;;;4.68;1.52;;;;;;;;;;5012642;28;20490;-76
2021/11/19 03:15:00;;;;;;;2.70;1.30;;;;;;;;;;5028628;28;20045;-76
2021/11/19 03:17:27;;;;;;;3.22;1.63;;;;;;;;;;5030291;28;20491;-76
2021/11/19 03:19:55;;;;;;;3.40;1.73;;;;;;;;;;5029357;28;20049;-76
2021/11/19 03:22:24;;;;;;;5.63;2.25;;;;;;;;;;5029916;28;20945;-76
2021/11/19 03:24:50;;;;;;;4.05;1.95;;;;;;;;;;5029721;28;20056;-76
2021/11/19 03:27:17;;;;;;;3.95;2.00;;;;;;;;;;5029412;28;20412;-76
2021/11/19 03:29:44;;;;;;;4.97;2.80;;;;;;;;;;5030249;28;20041;-76
2021/11/19 03:32:11;;;;;;;4.07;1.98;;;;;;;;;;5029720;28;20034;-76
2021/11/19 03:34:37;;;;;;;4.85;2.20;;;;;;;;;;5030408;28;20041;-75
2021/11/19 03:37:03;;;;;;;4.60;2.45;;;;;;;;;;5029289;28;20057;-76
2021/11/19 03:39:30;;;;;;;4.18;1.92;;;;;;;;;;5030253;28;20044;-76
2021/11/19 03:41:56;;;;;;;3.60;1.90;;;;;;;;;;5029350;28;20478;-76
2021/11/19 03:44:25;;;;;;;4.65;2.05;;;;;;;;;;5029893;28;20067;-76
2021/11/19 03:46:57;;;;;;;4.63;2.20;;;;;;;;;;5029240;28;20033;-75
2021/11/19 03:49:24;;;;;;;3.53;1.63;;;;;;;;;;5030197;28;20546;-76
2021/11/19 03:51:56;;;;;;;5.30;2.58;;;;;;;;;;5029211;28;20087;-76
2021/11/19 03:54:23;;;;;;;4.10;2.38;;;;;;;;;;5029822;28;20033;-76
2021/11/19 03:56:50;;;;;;;5.68;2.55;;;;;;;;;;5029119;28;20242;-76
2021/11/19 03:59:16;;;;;;;5.28;2.20;;;;;;;;;;5029981;28;20041;-76
2021/11/19 04:01:43;;;;;;;5.30;2.55;;;;;;;;;;5037545;28;20454;-76
2021/11/19 04:04:10;;;;;;;4.35;2.20;;;;;;;;;;5032695;28;20033;-76
2021/11/19 04:06:37;;;;;;;4.88;2.10;;;;;;;;;;5048865;28;20098;-76
2021/11/19 04:09:04;;;;;;;4.50;2.38;;;;;;;;;;5031919;28;20043;-76
2021/11/19 04:11:30;;;;;;;6.53;3.08;;;;;;;;;;5029509;28;20026;-76
2021/11/19 04:13:56;;;;;;;4.40;2.47;;;;;;;;;;5028996;28;20037;-76
2021/11/19 04:16:28;;;;;;;5.55;2.85;;;;;;;;;;5029345;28;20454;-76
2021/11/19 04:18:54;;;;;;;5.13;2.45;;;;;;;;;;5028830;28;20499;-76
2021/11/19 04:21:20;;;;;;;8.82;4.03;;;;;;;;;;5033868;28;20033;-76
2021/11/19 04:23:52;;;;;;;8.90;5.10;;;;;;;;;;5033909;28;20045;-76
2021/11/19 04:26:19;;;;;;;19.63;10.45;;;;;;;;;;5029063;28;20124;-76
2021/11/19 04:28:46;;;;;;;16.85;10.80;;;;;;;;;;5028771;28;20033;-76
2021/11/19 04:31:13;;;;;;;29.85;19.50;;;;;;;;;;5029441;28;20059;-76
2021/11/19 04:33:39;;;;;;;9.85;6.28;;;;;;;;;;5039830;28;20037;-76
2021/11/19 04:36:05;;;;;;;7.10;4.07;;;;;;;;;;5049079;28;20037;-76
2021/11/19 04:38:31;;;;;;;17.25;11.10;;;;;;;;;;5048232;28;20045;-76
2021/11/19 04:40:58;;;;;;;6.68;3.92;;;;;;;;;;5049271;28;20064;-76
2021/11/19 04:43:25;;;;;;;6.93;3.92;;;;;;;;;;5043362;28;20435;-76
2021/11/19 04:45:51;;;;;;;7.47;3.90;;;;;;;;;;5028455;28;20075;-76
2021/11/19 04:48:18;;;;;;;7.35;4.82;;;;;;;;;;5028702;28;20129;-76
2021/11/19 04:50:47;;;;;;;7.63;4.65;;;;;;;;;;5028566;28;20076;-76
2021/11/19 04:53:14;;;;;;;10.80;8.15;;;;;;;;;;5028051;28;20030;-76
2021/11/19 04:55:40;;;;;;;12.20;7.78;;;;;;;;;;5029152;28;20044;-76
2021/11/19 04:58:07;;;;;;;11.10;7.57;;;;;;;;;;5028646;28;20034;-76
2021/11/19 05:00:39;;;;;;;10.02;7.97;;;;;;;;;;5029188;28;20103;-76
2021/11/19 05:03:05;;;;;;;10.65;7.22;;;;;;;;;;5028219;28;20033;-76
2021/11/19 05:05:31;;;;;;;10.90;7.80;;;;;;;;;;5028410;28;20076;-76
2021/11/19 05:07:57;;;;;;;12.57;8.43;;;;;;;;;;5028490;28;20074;-76
2021/11/19 05:10:23;;;;;;;13.32;9.13;;;;;;;;;;5028657;28;20029;-76
2021/11/19 05:12:51;;;;;;;13.05;9.88;;;;;;;;;;5028323;28;20026;-76
2021/11/19 05:15:17;;;;;;;15.07;10.68;;;;;;;;;;5031100;28;20041;-76
2021/11/19 05:17:44;;;;;;;13.13;9.55;;;;;;;;;;5031669;28;20022;-76
2021/11/19 05:20:11;;;;;;;13.35;10.48;;;;;;;;;;5031971;28;20056;-76
2021/11/19 05:22:37;;;;;;;14.70;10.40;;;;;;;;;;5032092;28;20075;-76
2021/11/19 05:25:04;;;;;;;16.42;10.65;;;;;;;;;;5032080;28;20045;-76
2021/11/19 05:27:30;;;;;;;14.70;10.05;;;;;;;;;;5031097;28;20374;-76
2021/11/19 05:29:56;;;;;;;13.93;10.00;;;;;;;;;;5040673;28;20064;-75
2021/11/19 05:32:23;;;;;;;13.15;8.23;;;;;;;;;;5035149;28;20032;-76
2021/11/19 05:34:49;;;;;;;7.88;4.60;;;;;;;;;;5040872;28;20045;-76
2021/11/19 05:37:15;;;;;;;7.25;4.25;;;;;;;;;;5044536;28;20497;-76
2021/11/19 05:39:41;;;;;;;6.63;4.20;;;;;;;;;;5039987;28;20040;-76
2021/11/19 05:42:08;;;;;;;11.35;7.32;;;;;;;;;;5042777;28;20078;-76
2021/11/19 05:44:35;;;;;;;11.23;7.70;;;;;;;;;;5045369;28;20493;-76
2021/11/19 05:47:02;;;;;;;11.30;8.52;;;;;;;;;;5027674;28;20029;-76
2021/11/19 05:49:28;;;;;;;8.48;5.13;;;;;;;;;;5031839;28;20356;-76
2021/11/19 05:51:55;;;;;;;6.82;4.72;;;;;;;;;;5031672;28;20032;-76
2021/11/19 05:54:22;;;;;;;9.10;5.63;;;;;;;;;;5031489;28;20042;-76
2021/11/19 05:56:49;;;;;;;13.00;8.57;;;;;;;;;;5031746;28;20040;-76
2021/11/19 05:59:15;;;;;;;9.85;6.60;;;;;;;;;;5031301;28;20049;-76
2021/11/19 06:01:41;;;;;;;9.50;5.40;;;;;;;;;;5035093;28;20100;-76
2021/11/19 06:04:08;;;;;;;9.82;5.20;;;;;;;;;;5031205;28;20033;-76
2021/11/19 06:06:34;;;;;;;5.28;3.45;;;;;;;;;;5036063;28;20029;-76
2021/11/19 06:09:00;;;;;;;4.68;2.42;;;;;;;;;;5039469;28;20041;-76
2021/11/19 06:11:28;;;;;;;6.63;3.20;;;;;;;;;;5043122;28;20102;-76
2021/11/19 06:13:56;;;;;;;5.45;3.30;;;;;;;;;;5027402;28;20030;-76
2021/11/19 06:16:24;;;;;;;5.88;3.15;;;;;;;;;;5028388;28;20037;-76
2021/11/19 06:18:53;;;;;;;4.82;2.75;;;;;;;;;;5027961;28;20092;-76
2021/11/19 06:21:22;;;;;;;5.57;2.42;;;;;;;;;;5028491;28;20029;-76
2021/11/19 06:23:49;;;;;;;5.22;2.63;;;;;;;;;;5031897;28;20041;-76
2021/11/19 06:26:16;;;;;;;5.10;2.63;;;;;;;;;;5030872;28;20039;-76
2021/11/19 06:28:45;;;;;;;7.47;3.83;;;;;;;;;;5029338;28;20041;-76
2021/11/19 06:31:12;;;;;;;7.63;4.90;;;;;;;;;;5029946;28;20037;-76
2021/11/19 06:33:38;;;;;;;10.25;5.95;;;;;;;;;;5030046;28;20064;-76
2021/11/19 06:36:06;;;;;;;9.65;4.93;;;;;;;;;;5029960;28;20059;-76
2021/11/19 06:38:32;;;;;;;7.32;4.88;;;;;;;;;;5032425;28;20033;-76
2021/11/19 06:40:58;;;;;;;7.22;3.92;;;;;;;;;;5026625;28;20033;-76
2021/11/19 06:43:24;;;;;;;8.18;3.95;;;;;;;;;;5040006;28;20488;-76
2021/11/19 06:45:50;;;;;;;8.57;4.05;;;;;;;;;;5030405;28;20091;-76
2021/11/19 06:48:16;;;;;;;5.22;3.10;;;;;;;;;;5027441;28;20120;-76
2021/11/19 06:50:44;;;;;;;8.02;5.07;;;;;;;;;;5028843;28;20106;-76
2021/11/19 06:53:11;;;;;;;9.70;4.60;;;;;;;;;;5028137;28;20037;-77
2021/11/19 06:55:37;;;;;;;7.55;4.20;;;;;;;;;;5031187;28;20398;-76
2021/11/19 06:58:04;;;;;;;6.30;3.28;;;;;;;;;;5030571;28;20044;-77
2021/11/19 07:00:31;;;;;;;8.45;4.20;;;;;;;;;;5029398;28;20063;-77
2021/11/19 07:02:58;;;;;;;8.02;4.30;;;;;;;;;;5030815;28;20052;-76
2021/11/19 07:05:24;;;;;;;8.20;3.90;;;;;;;;;;5028127;28;20029;-76
2021/11/19 07:07:51;;;;;;;8.93;3.63;;;;;;;;;;5030035;28;20025;-76
2021/11/19 07:10:18;;;;;;;8.50;3.67;;;;;;;;;;5027937;28;20025;-76
2021/11/19 07:12:44;;;;;;;6.47;3.90;;;;;;;;;;5028240;28;20390;-76
2021/11/19 07:15:11;;;;;;;8.50;4.45;;;;;;;;;;5030579;28;20037;-76
2021/11/19 07:17:37;;;;;;;9.18;4.53;;;;;;;;;;5036484;28;20132;-76
2021/11/19 07:20:05;;;;;;;6.75;3.50;;;;;;;;;;5031034;28;20260;-76
2021/11/19 07:22:32;;;;;;;7.25;3.45;;;;;;;;;;5029604;28;20033;-76
2021/11/19 07:24:58;;;;;;;7.07;4.05;;;;;;;;;;5039395;28;20076;-77
2021/11/19 07:27:24;;;;;;;6.95;3.70;;;;;;;;;;5029382;28;20084;-77
2021/11/19 07:29:51;;;;;;;4.68;2.78;;;;;;;;;;5035707;28;20039;-76
2021/11/19 07:32:17;;;;;;;5.22;2.47;;;;;;;;;;5030288;28;20029;-76
2021/11/19 07:34:44;;;;;;;4.38;2.20;;;;;;;;;;5029571;28;20075;-76
2021/11/19 07:37:10;;;;;;;4.60;2.45;;;;;;;;;;5029004;28;20566;-76
2021/11/19 07:39:37;;;;;;;6.82;3.65;;;;;;;;;;5029030;28;20033;-76
2021/11/19 07:42:03;;;;;;;5.18;2.08;;;;;;;;;;5029470;28;20075;-77
2021/11/19 07:44:29;;;;;;;5.00;2.50;;;;;;;;;;5029295;28;20761;-77
2021/11/19 07:46:55;;;;;;;7.47;2.97;;;;;;;;;;5029790;28;20760;-77
2021/11/19 07:49:21;;;;;;;6.50;3.40;;;;;;;;;;5039110;28;20037;-77
2021/11/19 07:51:49;;;;;;;7.68;4.90;;;;;;;;;;5036896;28;20029;-76
2021/11/19 07:54:15;;;;;;;6.97;4.10;;;;;;;;;;5029903;28;20033;-77
2021/11/19 07:56:43;;;;;;;6.60;3.88;;;;;;;;;;5030766;28;20394;-77
2021/11/19 07:59:14;;;;;;;8.00;4.47;;;;;;;;;;5028954;28;20033;-77
2021/11/19 08:01:41;;;;;;;8.30;5.25;;;;;;;;;;5028475;28;20562;-76
2021/11/19 08:04:07;;;;;;;10.25;4.53;;;;;;;;;;5030177;28;20064;-77
2021/11/19 08:06:33;;;;;;;6.95;4.38;;;;;;;;;;5038153;28;20033;-77
2021/11/19 08:09:00;;;;;;;8.38;5.20;;;;;;;;;;5030325;28;20030;-76
2021/11/19 08:11:26;;;;;;;10.68;5.65;;;;;;;;;;5028360;28;20029;-76
2021/11/19 08:13:52;;;;;;;10.55;4.10;;;;;;;;;;5029919;28;20033;-77
2021/11/19 08:16:18;;;;;;;10.13;6.00;;;;;;;;;;5029369;28;20076;-77
2021/11/19 08:18:47;;;;;;;15.43;8.55;;;;;;;;;;5028690;28;20108;-77
2021/11/19 08:21:13;;;;;;;13.75;8.98;;;;;;;;;;5029247;28;20678;-77
2021/11/19 08:23:41;;;;;;;9.45;6.43;;;;;;;;;;5033198;28;20034;-77
2021/11/19 08:26:10;;;;;;;9.70;7.07;;;;;;;;;;5029258;28;20045;-77
2021/11/19 08:28:36;;;;;;;11.00;6.85;;;;;;;;;;5028709;28;20048;-77
2021/11/19 08:31:03;;;;;;;10.45;7.32;;;;;;;;;;5029352;28;20026;-77
2021/11/19 08:33:30;;;;;;;9.70;7.00;;;;;;;;;;5028574;28;20910;-77
2021/11/19 08:35:56;;;;;;;11.15;7.57;;;;;;;;;;5029230;28;20120;-77
2021/11/19 08:38:23;;;;;;;10.57;6.40;;;;;;;;;;5037747;28;20068;-77
2021/11/19 08:40:50;;;;;;;9.27;6.82;;;;;;;;;;5037278;28;20091;-77
2021/11/19 08:43:20;;;;;;;9.30;7.28;;;;;;;;;;5028623;28;20069;-77
2021/11/19 08:45:48;;;;;;;9.82;6.95;;;;;;;;;;5021599;28;20084;-77
2021/11/19 08:48:14;;;;;;;11.45;6.80;;;;;;;;;;5028409;28;20402;-76
2021/11/19 08:50:40;;;;;;;9.95;6.47;;;;;;;;;;5032251;28;20383;-77
2021/11/19 08:53:08;;;;;;;9.70;6.50;;;;;;;;;;5044392;28;20514;-76
2021/11/19 08:55:35;;;;;;;9.57;6.15;;;;;;;;;;5035714;28;20061;-77
2021/11/19 08:58:01;;;;;;;7.70;5.32;;;;;;;;;;5046793;28;20029;-77
2021/11/19 09:00:29;;;;;;;9.30;6.28;;;;;;;;;;5032255;28;20103;-76
2021/11/19 09:02:56;;;;;;;9.30;6.53;;;;;;;;;;5032011;28;20021;-77
2021/11/19 09:05:22;;;;;;;10.43;6.43;;;;;;;;;;5032112;28;20881;-76
2021/11/19 09:07:48;;;;;;;9.55;7.00;;;;;;;;;;5032165;28;20100;-77
2021/11/19 09:10:15;;;;;;;10.15;7.05;;;;;;;;;;5032646;28;20079;-76
2021/11/19 09:12:42;;;;;;;10.52;6.53;;;;;;;;;;5037760;28;20482;-76
2021/11/19 09:15:09;;;;;;;12.23;7.05;;;;;;;;;;5040609;28;20060;-77
2021/11/19 09:17:47;;;;;;;12.05;7.45;;;;;;;;;;5038733;28;20035;-76
2021/11/19 09:20:31;;;;;;;10.63;7.47;;;;;;;;;;5040220;28;20215;-76
2021/11/19 09:23:06;;;;;;;8.50;6.38;;;;;;;;;;5035093;28;20061;-76
2021/11/19 09:25:33;;;;;;;9.32;6.35;;;;;;;;;;5033051;28;20132;-77
2021/11/19 09:28:01;;;;;;;10.77;7.40;;;;;;;;;;5040164;28;20037;-76
2021/11/19 09:30:31;;;;;;;10.50;7.15;;;;;;;;;;5033939;28;20029;-77
2021/11/19 09:32:58;;;;;;;9.40;7.40;;;;;;;;;;5043149;28;20021;-77
2021/11/19 09:35:27;;;;;;;10.52;6.85;;;;;;;;;;5042967;28;20390;-76
2021/11/19 09:37:53;;;;;;;10.00;7.22;;;;;;;;;;5056827;22;20030;-76
2021/11/19 09:40:23;;;;;;;10.88;6.95;;;;;;;;;;5050646;28;20136;-76
2021/11/19 09:43:01;;;;;;;10.65;7.97;;;;;;;;;;5052658;28;20158;-77
2021/11/19 09:45:31;;;;;;;12.13;8.07;;;;;;;;;;5040451;28;20067;-76
2021/11/19 09:48:07;;;;;;;9.85;6.78;;;;;;;;;;5044995;28;20963;-77
2021/11/19 09:50:45;;;;;;;10.85;7.20;;;;;;;;;;5024723;28;20034;-76
2021/11/19 09:53:30;;;;;;;10.85;7.40;;;;;;;;;;5018208;28;20401;-77
2021/11/19 09:56:25;;;;;;;10.52;7.78;;;;;;;;;;5017635;28;20040;-77
2021/11/19 09:58:54;;;;;;;11.68;7.60;;;;;;;;;;5024933;28;20050;-76
2021/11/19 10:01:26;;;;;;;12.73;7.50;;;;;;;;;;5046713;28;20047;-77
2021/11/19 10:04:11;;;;;;;11.18;6.90;;;;;;;;;;5037559;28;20087;-76
2021/11/19 10:06:43;;;;;;;10.95;7.85;;;;;;;;;;5047373;28;20040;-77
2021/11/19 10:09:30;;;;;;;18.02;8.88;;;;;;;;;;5058675;28;20475;-77
2021/11/19 10:12:00;;;;;;;11.02;7.80;;;;;;;;;;5021094;28;20068;-77
2021/11/19 10:14:26;;;;;;;10.48;7.38;;;;;;;;;;5019771;28;20743;-77
2021/11/19 10:17:11;;;;;;;10.98;7.50;;;;;;;;;;5039381;28;20141;-77
2021/11/19 10:19:40;;;;;;;10.90;7.85;;;;;;;;;;5043105;28;20034;-76
2021/11/19 10:22:25;;;;;;;11.48;8.55;;;;;;;;;;5011349;28;20034;-77
2021/11/19 10:24:51;;;;;;;12.07;7.68;;;;;;;;;;5038496;28;20036;-76
2021/11/19 10:27:18;;;;;;;11.00;7.57;;;;;;;;;;5051217;28;20024;-77
2021/11/19 10:29:50;;;;;;;12.35;7.80;;;;;;;;;;5045136;28;20390;-77
2021/11/19 10:32:19;;;;;;;14.48;9.00;;;;;;;;;;5035349;28;20486;-77
2021/11/19 10:35:00;;;;;;;12.38;8.43;;;;;;;;;;5017968;28;20140;-77
2021/11/19 10:37:28;;;;;;;13.40;8.27;;;;;;;;;;5031232;28;20674;-76
2021/11/19 10:40:13;;;;;;;13.43;7.80;;;;;;;;;;5043434;28;20124;-76
2021/11/19 10:42:58;;;;;;;11.65;7.70;;;;;;;;;;5031177;28;20140;-76
2021/11/19 10:45:44;;;;;;;13.38;8.27;;;;;;;;;;5023576;28;20026;-76
2021/11/19 10:48:29;;;;;;;13.52;9.15;;;;;;;;;;5011077;28;20117;-77
2021/11/19 10:50:55;;;;;;;12.55;9.48;;;;;;;;;;5030957;28;20052;-77
2021/11/19 10:53:39;;;;;;;11.88;8.40;;;;;;;;;;5019653;28;20037;-76
2021/11/19 10:56:13;;;;;;;10.43;8.05;;;;;;;;;;5029007;28;20422;-76
2021/11/19 10:58:45;;;;;;;10.20;7.78;;;;;;;;;;5022378;28;20043;-76
2021/11/19 11:01:30;;;;;;;10.63;7.85;;;;;;;;;;5014144;28;20033;-76
2021/11/19 11:04:02;;;;;;;10.93;8.07;;;;;;;;;;5016741;28;20042;-76
2021/11/19 11:06:34;;;;;;;10.52;8.52;;;;;;;;;;5038394;28;20025;-76
2021/11/19 11:09:16;;;;;;;10.70;7.38;;;;;;;;;;5011341;28;20053;-76
2021/11/19 11:11:43;;;;;;;10.45;8.05;;;;;;;;;;5021872;28;20716;-76
2021/11/19 11:14:09;;;;;;;11.88;8.43;;;;;;;;;;5017777;28;20037;-76
2021/11/19 11:16:38;;;;;;;11.60;7.38;;;;;;;;;;5034193;28;20538;-77
2021/11/19 11:19:10;;;;;;;8.77;6.63;;;;;;;;;;5012265;28;20077;-77
2021/11/19 11:21:38;;;;;;;13.75;6.95;;;;;;;;;;5044325;28;20040;-77
2021/11/19 11:24:06;;;;;;;9.68;6.57;;;;;;;;;;5049075;28;20115;-76
2021/11/19 11:26:40;;;;;;;9.55;6.47;;;;;;;;;;5013745;28;20037;-76
2021/11/19 11:29:09;;;;;;;9.95;6.68;;;;;;;;;;5027307;28;20116;-76
2021/11/19 11:31:46;;;;;;;8.90;6.13;;;;;;;;;;5029783;28;20030;-76
2021/11/19 11:34:15;;;;;;;8.73;6.32;;;;;;;;;;5021894;28;20105;-76
2021/11/19 11:37:11;;;;;;;9.50;6.72;;;;;;;;;;5009748;28;20507;-76
2021/11/19 11:39:44;;;;;;;12.70;7.65;;;;;;;;;;5020342;28;20061;-76
2021/11/19 11:42:38;;;;;;;10.18;6.75;;;;;;;;;;5010096;28;20599;-76
2021/11/19 11:45:22;;;;;;;8.77;5.90;;;;;;;;;;5042847;28;20405;-77
2021/11/19 11:47:51;;;;;;;9.07;6.13;;;;;;;;;;5046349;28;20032;-76
2021/11/19 11:50:45;;;;;;;9.60;6.10;;;;;;;;;;5014117;28;20088;-77
2021/11/19 11:53:13;;;;;;;14.48;5.45;;;;;;;;;;5025849;28;20077;-76
2021/11/19 11:55:45;;;;;;;7.70;5.60;;;;;;;;;;5022533;28;20862;-76
2021/11/19 11:58:29;;;;;;;9.90;5.32;;;;;;;;;;5017958;28;20041;-76
2021/11/19 12:01:10;;;;;;;10.32;4.90;;;;;;;;;;5023107;28;20038;-76
2021/11/19 12:03:55;;;;;;;9.65;4.88;;;;;;;;;;5010194;28;20045;-76
2021/11/19 12:06:29;;;;;;;8.40;5.22;;;;;;;;;;5010066;28;20072;-77
2021/11/19 12:08:58;;;;;;;9.82;6.15;;;;;;;;;;5022290;28;20105;-76
2021/11/19 12:11:30;;;;;;;12.23;5.55;;;;;;;;;;5033089;28;20029;-76
2021/11/19 12:14:06;;;;;;;9.93;6.03;;;;;;;;;;5031697;28;20033;-77
2021/11/19 12:16:32;;;;;;;12.30;6.32;;;;;;;;;;5024821;28;20042;-76
2021/11/19 12:19:20;;;;;;;10.15;6.00;;;;;;;;;;5020461;28;20368;-76
2021/11/19 12:21:51;;;;;;;9.35;5.78;;;;;;;;;;5009958;28;20065;-76
2021/11/19 12:24:30;;;;;;;8.75;5.20;;;;;;;;;;5029583;28;20048;-76
2021/11/19 12:27:03;;;;;;;8.48;4.97;;;;;;;;;;5041337;28;20034;-77
2021/11/19 12:29:51;;;;;;;8.98;5.93;;;;;;;;;;5034291;28;20026;-76
2021/11/19 12:32:36;;;;;;;7.70;4.75;;;;;;;;;;5032195;28;20037;-77
2021/11/19 12:35:08;;;;;;;8.18;5.32;;;;;;;;;;5024857;28;20481;-76
2021/11/19 12:37:37;;;;;;;8.85;5.03;;;;;;;;;;5023525;28;20037;-77
2021/11/19 12:40:22;;;;;;;7.20;4.68;;;;;;;;;;5019139;28;20095;-77
2021/11/19 12:42:56;;;;;;;8.85;4.65;;;;;;;;;;5019754;28;20376;-77
2021/11/19 12:45:22;;;;;;;7.32;4.30;;;;;;;;;;5025247;28;20382;-77
2021/11/19 12:48:07;;;;;;;11.93;4.75;;;;;;;;;;5028443;28;20037;-77
2021/11/19 12:50:51;;;;;;;7.75;4.35;;;;;;;;;;5022762;28;20410;-77
2021/11/19 12:53:38;;;;;;;6.85;4.13;;;;;;;;;;5024154;28;20045;-76
2021/11/19 12:56:12;;;;;;;8.38;4.13;;;;;;;;;;5022059;28;20045;-77
2021/11/19 12:58:40;;;;;;;6.68;4.10;;;;;;;;;;5019435;28;20703;-76
2021/11/19 13:01:22;;;;;;;8.10;4.50;;;;;;;;;;5032152;28;20033;-77
2021/11/19 13:04:03;;;;;;;7.17;4.30;;;;;;;;;;5023834;28;20033;-75
2021/11/19 13:06:35;;;;;;;7.13;4.47;;;;;;;;;;5030561;28;20029;-77
2021/11/19 13:09:23;;;;;;;8.68;4.10;;;;;;;;;;5026912;28;20040;-77
2021/11/19 13:12:07;;;;;;;9.35;4.30;;;;;;;;;;5015525;28;20133;-77
2021/11/19 13:14:33;;;;;;;8.93;3.97;;;;;;;;;;5030443;28;20131;-77
2021/11/19 13:17:03;;;;;;;9.85;4.05;;;;;;;;;;5026461;28;20033;-77
2021/11/19 13:19:29;;;;;;;6.55;3.58;;;;;;;;;;5022427;28;20048;-77
2021/11/19 13:22:05;;;;;;;7.95;4.63;;;;;;;;;;5015080;28;20122;-77
2021/11/19 13:24:35;;;;;;;5.95;3.28;;;;;;;;;;5016395;28;20030;-77
2021/11/19 13:27:13;;;;;;;5.72;3.10;;;;;;;;;;5038664;28;20144;-77
2021/11/19 13:29:48;;;;;;;5.18;3.10;;;;;;;;;;5044015;28;20033;-77
2021/11/19 13:34:57;;;;;;;5.93;3.40;;;;;;;;;;5038823;28;20048;-77
2021/11/19 13:37:46;;;;;;;5.93;3.25;;;;;;;;;;5034821;28;20494;-77
2021/11/19 13:40:31;;;;;;;5.88;2.92;;;;;;;;;;5049103;28;20068;-77
2021/11/19 13:42:57;;;;;;;5.80;2.90;;;;;;;;;;5042968;28;20033;-77
2021/11/19 13:45:29;;;;;;;7.75;3.50;;;;;;;;;;5025308;28;20099;-77
2021/11/19 13:48:14;;;;;;;7.30;3.65;;;;;;;;;;5031268;28;20099;-77
2021/11/19 13:50:40;;;;;;;6.35;3.75;;;;;;;;;;5026180;28;20057;-77
2021/11/19 13:53:08;;;;;;;6.18;3.58;;;;;;;;;;5030058;28;20030;-76
2021/11/19 13:55:44;;;;;;;7.47;4.38;;;;;;;;;;5032253;28;20051;-77
2021/11/19 13:58:22;;;;;;;7.60;3.63;;;;;;;;;;5031631;28;20044;-77
2021/11/19 14:01:03;;;;;;;6.60;3.90;;;;;;;;;;5021061;28;20109;-77
2021/11/19 14:03:32;;;;;;;7.80;3.13;;;;;;;;;;5024192;28;20044;-77
2021/11/19 14:06:08;;;;;;;7.05;3.47;;;;;;;;;;5024381;28;20107;-77
2021/11/19 14:08:34;;;;;;;5.97;3.20;;;;;;;;;;5011320;28;20117;-76
2021/11/19 14:11:02;;;;;;;5.10;2.92;;;;;;;;;;5020811;28;20132;-77
2021/11/19 14:13:29;;;;;;;8.70;3.20;;;;;;;;;;5019653;28;20084;-76
2021/11/19 14:16:10;;;;;;;9.13;3.65;;;;;;;;;;5023104;28;20032;-77
2021/11/19 14:18:57;;;;;;;7.03;2.75;;;;;;;;;;5021353;28;20412;-76
2021/11/19 14:24:18;;;;;;;6.72;3.65;;;;;;;;;;5041017;28;20052;-77
2021/11/19 14:26:46;;;;;;;5.45;2.85;;;;;;;;;;5016150;28;20045;-77
2021/11/19 14:29:23;;;;;;;6.18;2.78;;;;;;;;;;5032897;28;20033;-76
2021/11/19 14:31:51;;;;;;;6.57;3.10;;;;;;;;;;5026159;28;20029;-77
2021/11/19 14:34:19;;;;;;;6.82;3.85;;;;;;;;;;5027640;28;20041;-76
2021/11/19 14:36:49;;;;;;;10.07;3.50;;;;;;;;;;5041739;28;20033;-76
2021/11/19 14:39:18;;;;;;;9.05;3.33;;;;;;;;;;5032931;28;20148;-75
2021/11/19 14:41:46;;;;;;;7.18;2.53;;;;;;;;;;5033400;28;20056;-76
2021/11/19 14:44:16;;;;;;;8.07;2.55;;;;;;;;;;5013734;28;20126;-77
2021/11/19 14:46:45;;;;;;;5.95;3.20;;;;;;;;;;5030398;28;20052;-77
2021/11/19 14:49:18;;;;;;;6.90;3.53;;;;;;;;;;5032569;28;20021;-77
2021/11/19 14:51:50;;;;;;;12.43;3.97;;;;;;;;;;5022878;28;20026;-76
2021/11/19 14:54:18;;;;;;;12.80;5.82;;;;;;;;;;5034606;28;20074;-76
2021/11/19 14:56:44;;;;;;;13.27;8.23;;;;;;;;;;5030064;28;20044;-77
2021/11/19 14:59:23;;;;;;;22.70;13.68;;;;;;;;;;5029035;28;20827;-77
2021/11/19 15:02:03;;;;;;;26.38;15.38;;;;;;;;;;5022879;28;20032;-76